createdAt,value
2019-02-28T00:02:07.636Z,6.10
2019-02-28T00:05:30.355Z,6.10
2019-02-28T00:08:53.703Z,6.10
2019-02-28T00:12:17.093Z,6.10
2019-02-28T00:15:39.529Z,6.10
2019-02-28T00:19:01.927Z,6.10
2019-02-28T00:22:24.337Z,6.00
2019-02-28T00:25:46.494Z,6.00
2019-02-28T00:29:09.519Z,6.00
2019-02-28T00:32:31.960Z,6.10
2019-02-28T00:35:54.561Z,6.00
2019-02-28T00:39:17.530Z,5.90
2019-02-28T00:42:40.128Z,5.90
2019-02-28T00:46:02.862Z,5.80
2019-02-28T00:49:25.146Z,5.80
2019-02-28T00:52:47.332Z,5.70
2019-02-28T00:56:09.686Z,5.70
2019-02-28T00:59:32.457Z,5.70
2019-02-28T01:02:55.109Z,5.60
2019-02-28T01:06:17.484Z,5.60
2019-02-28T01:09:40.165Z,5.40
2019-02-28T01:13:02.860Z,5.50
2019-02-28T01:16:25.550Z,5.60
2019-02-28T01:19:48.005Z,5.60
2019-02-28T01:23:10.878Z,5.60
2019-02-28T01:26:33.347Z,5.60
2019-02-28T01:29:55.710Z,5.60
2019-02-28T01:33:18.090Z,5.60
2019-02-28T01:36:40.749Z,5.70
2019-02-28T01:40:04.402Z,5.70
2019-02-28T01:43:28.958Z,5.70
2019-02-28T01:46:52.292Z,5.70
2019-02-28T01:50:15.116Z,5.60
2019-02-28T01:53:37.518Z,5.70
2019-02-28T01:57:00.229Z,5.70
2019-02-28T02:00:23.789Z,5.90
2019-02-28T02:03:47.289Z,5.90
2019-02-28T02:07:09.732Z,6.00
2019-02-28T02:10:32.401Z,6.00
2019-02-28T02:13:54.849Z,6.00
2019-02-28T02:17:17.516Z,6.00
2019-02-28T02:20:40.029Z,6.00
2019-02-28T02:24:02.830Z,6.00
2019-02-28T02:27:25.652Z,6.10
2019-02-28T02:30:50.903Z,6.10
2019-02-28T02:34:11.914Z,6.10
2019-02-28T02:37:34.631Z,6.10
2019-02-28T02:41:00.587Z,6.10
2019-02-28T02:44:22.412Z,6.20
2019-02-28T02:47:44.654Z,6.20
2019-02-28T02:51:10.887Z,6.20
2019-02-28T02:54:31.318Z,6.20
2019-02-28T02:57:53.980Z,6.20
2019-02-28T03:01:16.598Z,6.20
2019-02-28T03:04:39.251Z,6.20
2019-02-28T03:08:01.742Z,6.20
2019-02-28T03:11:25.837Z,6.20
2019-02-28T03:14:49.949Z,6.30
2019-02-28T03:18:12.467Z,6.40
2019-02-28T03:21:35.175Z,6.40
2019-02-28T03:24:57.645Z,6.40
2019-02-28T03:28:20.104Z,6.50
2019-02-28T03:31:55.010Z,6.50
2019-02-28T03:35:06.758Z,6.50
2019-02-28T03:38:29.613Z,6.40
2019-02-28T03:41:52.927Z,6.30
2019-02-28T03:45:17.012Z,6.20
2019-02-28T03:48:39.523Z,6.20
2019-02-28T03:52:06.651Z,6.20
2019-02-28T03:55:29.129Z,6.10
2019-02-28T03:58:51.544Z,6.10
2019-02-28T04:02:20.986Z,6.10
2019-02-28T04:05:38.582Z,6.00
2019-02-28T04:09:07.078Z,6.00
2019-02-28T04:12:25.196Z,5.90
2019-02-28T04:16:07.436Z,6.00
2019-02-28T04:19:12.301Z,6.00
2019-02-28T04:22:34.934Z,6.00
2019-02-28T04:25:57.938Z,6.00
2019-02-28T04:29:20.844Z,6.00
2019-02-28T04:32:43.253Z,6.00
2019-02-28T04:36:05.438Z,6.00
2019-02-28T04:39:27.883Z,6.10
2019-02-28T04:42:50.304Z,6.10
2019-02-28T04:46:14.305Z,6.10
2019-02-28T04:49:36.764Z,6.30
2019-02-28T04:52:59.133Z,6.30
2019-02-28T04:56:32.553Z,6.20
2019-02-28T04:59:55.088Z,6.30
2019-02-28T05:03:17.761Z,6.30
2019-02-28T05:06:40.484Z,6.40
2019-02-28T05:10:02.923Z,6.40
2019-02-28T05:13:25.373Z,6.50
2019-02-28T05:16:48.460Z,6.40
2019-02-28T05:20:12.152Z,6.30
2019-02-28T05:23:36.148Z,6.30
2019-02-28T05:27:00.115Z,6.30
2019-02-28T05:30:23.240Z,6.30
2019-02-28T05:33:45.670Z,6.30
2019-02-28T05:37:12.243Z,6.20
2019-02-28T05:40:32.314Z,6.20
2019-02-28T05:43:54.748Z,6.10
2019-02-28T05:47:17.096Z,6.20
2019-02-28T05:50:39.563Z,6.20
2019-02-28T05:54:01.896Z,6.10
2019-02-28T05:57:24.564Z,6.10
2019-02-28T06:00:46.925Z,6.00
2019-02-28T06:04:09.593Z,6.10
2019-02-28T06:07:31.905Z,6.10
2019-02-28T06:10:56.089Z,6.10
2019-02-28T06:14:18.316Z,6.20
2019-02-28T06:17:41.102Z,6.20
2019-02-28T06:21:03.870Z,6.20
2019-02-28T06:24:26.291Z,6.20
2019-02-28T06:27:50.571Z,6.30
2019-02-28T06:31:14.257Z,6.40
2019-02-28T06:34:39.424Z,6.50
2019-02-28T06:38:01.088Z,6.50
2019-02-28T06:41:23.169Z,6.60
2019-02-28T06:44:45.658Z,6.80
2019-02-28T06:48:08.415Z,6.90
2019-02-28T06:51:30.605Z,7.10
2019-02-28T06:54:54.325Z,7.20
2019-02-28T06:58:17.919Z,7.30
2019-02-28T07:01:40.336Z,7.40
2019-02-28T07:05:02.797Z,7.70
2019-02-28T07:08:28.337Z,7.80
2019-02-28T07:11:51.338Z,8.10
2019-02-28T07:15:14.176Z,8.50
2019-02-28T07:18:36.325Z,8.80
2019-02-28T07:21:58.805Z,8.90
2019-02-28T07:25:21.002Z,9.30
2019-02-28T07:28:43.273Z,9.30
2019-02-28T07:32:05.403Z,9.30
2019-02-28T07:35:32.711Z,9.30
2019-02-28T07:38:51.873Z,9.10
2019-02-28T07:42:14.291Z,9.40
2019-02-28T07:45:36.869Z,9.40
2019-02-28T07:49:00.860Z,9.50
2019-02-28T07:52:23.875Z,9.50
2019-02-28T07:55:46.320Z,9.70
2019-02-28T07:59:08.665Z,9.80
2019-02-28T08:02:30.874Z,9.90
2019-02-28T08:05:53.616Z,10.00
2019-02-28T08:09:24.602Z,10.30
2019-02-28T08:12:47.398Z,10.60
2019-02-28T08:16:10.193Z,10.40
2019-02-28T08:19:45.480Z,10.40
2019-02-28T08:26:58.238Z,10.00
2019-02-28T08:30:21.668Z,10.20
2019-02-28T08:33:43.986Z,10.30
2019-02-28T08:37:06.536Z,10.60
2019-02-28T08:40:29.203Z,10.60
2019-02-28T08:43:52.096Z,10.70
2019-02-28T08:47:17.853Z,10.80
2019-02-28T08:50:38.676Z,10.90
2019-02-28T08:54:01.792Z,10.90
2019-02-28T08:57:25.673Z,11.10
2019-02-28T09:00:48.481Z,11.20
2019-02-28T09:04:11.397Z,11.10
2019-02-28T09:07:33.936Z,11.10
2019-02-28T09:10:56.437Z,11.20
2019-02-28T09:14:19.106Z,11.00
2019-02-28T09:17:41.600Z,11.10
2019-02-28T09:21:04.234Z,11.20
2019-02-28T09:24:26.899Z,11.20
2019-02-28T09:27:49.051Z,11.30
2019-02-28T09:31:11.714Z,11.30
2019-02-28T09:34:34.397Z,11.50
2019-02-28T09:37:56.851Z,11.50
2019-02-28T09:41:19.170Z,11.40
2019-02-28T09:44:42.028Z,11.30
2019-02-28T09:48:07.799Z,11.30
2019-02-28T09:51:31.914Z,11.30
2019-02-28T09:54:59.257Z,11.30
2019-02-28T09:58:20.708Z,11.40
2019-02-28T10:01:43.862Z,11.40
2019-02-28T10:05:07.614Z,11.30
2019-02-28T10:08:30.202Z,11.40
2019-02-28T10:11:52.708Z,11.40
2019-02-28T10:15:17.098Z,11.30
2019-02-28T10:18:39.696Z,11.40
2019-02-28T10:22:02.109Z,11.50
2019-02-28T10:25:24.701Z,11.60
2019-02-28T10:28:47.780Z,11.60
2019-02-28T10:32:10.561Z,11.60
2019-02-28T10:35:36.363Z,11.50
2019-02-28T10:38:57.121Z,11.70
2019-02-28T10:42:20.117Z,11.70
2019-02-28T10:45:43.084Z,11.80
2019-02-28T10:49:05.784Z,11.90
2019-02-28T10:52:30.620Z,12.00
2019-02-28T10:55:54.337Z,12.10
2019-02-28T10:59:17.351Z,12.00
2019-02-28T17:17:12.855Z,8.90
2019-02-28T17:20:37.612Z,8.70
2019-02-28T17:23:59.543Z,8.60
2019-02-28T17:27:33.469Z,8.40
2019-02-28T17:31:13.699Z,8.30
2019-02-28T17:34:36.521Z,8.20
2019-02-28T17:38:00.158Z,8.10
2019-02-28T17:41:23.635Z,8.00
2019-02-28T17:45:02.950Z,8.00
2019-02-28T17:48:48.716Z,7.90
2019-02-28T17:52:19.157Z,7.90
2019-02-28T17:56:08.738Z,7.80
2019-02-28T17:59:54.839Z,7.70
2019-02-28T18:03:50.685Z,7.60
2019-02-28T18:07:33.576Z,7.60
2019-02-28T18:11:35.289Z,7.50
2019-02-28T18:15:08.842Z,7.40
2019-02-28T18:19:08.149Z,7.20
2019-02-28T18:22:48.682Z,7.10
2019-02-28T18:26:49.176Z,7.00
2019-02-28T18:31:02.752Z,6.90
2019-02-28T18:34:27.710Z,6.90
2019-02-28T18:37:50.514Z,7.00
2019-02-28T18:41:14.054Z,7.00
2019-02-28T18:44:37.407Z,7.00
2019-02-28T18:48:00.754Z,6.90
2019-02-28T18:51:23.558Z,6.90
2019-02-28T18:54:46.167Z,6.90
2019-02-28T18:58:08.607Z,6.80
2019-02-28T19:01:31.372Z,6.70
2019-02-28T19:04:53.812Z,6.60
2019-02-28T19:08:16.198Z,6.50
2019-02-28T19:11:38.600Z,6.50
2019-02-28T19:15:00.970Z,6.50
2019-02-28T19:18:23.752Z,6.40
2019-02-28T19:21:46.289Z,6.30
2019-02-28T19:25:08.989Z,6.30
2019-02-28T19:28:31.217Z,6.30
2019-02-28T19:31:54.842Z,6.10
2019-02-28T19:35:17.300Z,6.00
2019-02-28T19:38:39.745Z,5.90
2019-02-28T19:42:02.327Z,5.90
2019-02-28T19:45:25.305Z,5.90
2019-02-28T19:48:48.165Z,5.90
2019-02-28T19:52:10.988Z,5.90
2019-02-28T19:55:33.942Z,5.90
2019-02-28T19:58:56.556Z,5.90
2019-02-28T20:02:19.037Z,5.90
2019-02-28T20:05:41.799Z,5.80
2019-02-28T20:09:07.458Z,5.80
2019-02-28T20:12:31.182Z,5.90
2019-02-28T20:15:54.133Z,5.90
2019-02-28T20:19:16.754Z,5.80
2019-02-28T20:22:39.745Z,5.70
2019-02-28T20:26:02.609Z,5.70
2019-02-28T20:29:25.156Z,5.80
2019-02-28T20:32:47.846Z,5.80
2019-02-28T20:36:10.718Z,5.80
2019-02-28T20:39:33.204Z,5.90
2019-02-28T20:42:56.304Z,6.00
2019-02-28T20:46:18.789Z,6.00
2019-02-28T20:49:41.393Z,6.10
2019-02-28T20:53:05.394Z,6.10
2019-02-28T20:56:28.200Z,6.10
2019-02-28T20:59:51.005Z,6.10
2019-02-28T21:03:13.743Z,6.10
2019-02-28T21:06:35.832Z,6.20
2019-02-28T21:09:58.425Z,6.20
2019-02-28T21:13:21.044Z,6.20
2019-02-28T21:16:43.652Z,6.20
2019-02-28T21:20:07.356Z,6.30
2019-02-28T21:23:30.005Z,6.30
2019-02-28T21:26:55.422Z,6.20
2019-02-28T21:30:20.046Z,6.30
2019-02-28T21:33:42.996Z,6.30
2019-02-28T21:37:05.357Z,6.30
2019-02-28T21:40:27.538Z,6.30
2019-02-28T21:43:49.895Z,6.20
2019-02-28T21:47:12.399Z,6.20
2019-02-28T21:50:34.789Z,6.20
2019-02-28T21:53:56.860Z,6.10
2019-02-28T21:57:19.369Z,6.10
2019-02-28T22:00:42.159Z,6.10
2019-02-28T22:04:04.860Z,6.10
2019-02-28T22:07:27.337Z,6.00
2019-02-28T22:10:49.365Z,6.00
2019-02-28T22:15:03.346Z,6.00
2019-02-28T22:18:25.746Z,6.00
2019-02-28T22:21:48.771Z,6.00
2019-02-28T22:25:12.554Z,6.00
2019-02-28T22:28:34.772Z,6.00
2019-02-28T22:32:10.829Z,5.90
2019-02-28T22:35:36.956Z,5.80
2019-02-28T22:38:59.345Z,5.80
2019-02-28T22:42:22.587Z,5.80
2019-02-28T22:45:45.277Z,5.80
2019-02-28T22:49:07.925Z,5.80
2019-02-28T22:52:30.496Z,5.70
2019-02-28T22:55:53.232Z,5.80
2019-02-28T22:59:15.648Z,5.80
2019-02-28T23:02:37.822Z,5.80
2019-02-28T23:06:00.305Z,5.70
2019-02-28T23:09:22.876Z,5.70
2019-02-28T23:12:45.118Z,5.60
2019-02-28T23:16:08.396Z,5.60
2019-02-28T23:19:30.977Z,5.50
2019-02-28T23:22:53.610Z,5.40
2019-02-28T23:26:16.239Z,5.40
2019-02-28T23:29:41.173Z,5.30
2019-02-28T23:33:07.386Z,5.30
2019-02-28T23:36:29.931Z,5.30
2019-02-28T23:39:52.204Z,5.20
2019-02-28T23:43:14.734Z,5.20
2019-02-28T23:46:37.000Z,5.10
2019-02-28T23:49:59.492Z,5.00
2019-02-28T23:53:22.189Z,4.90
2019-02-28T23:56:44.588Z,4.90
